Time,TemperatureF,DewpointF,PressureIn,WindDirection,WindDirectionDegrees,WindSpeedMPH,WindSpeedGustMPH,Humidity,HourlyPrecipIn,Conditions,Clouds,dailyrainin,SoftwareType,DateUTC
2013-09-04 00:03:00,61.4,52.7,30.12,North,0,0.0,-999.0,73,0.00,,,0.00,,2013-09-04 07:03:00,
2013-09-04 00:13:00,61.2,52.9,30.12,North,0,0.0,-999.0,74,0.00,,,0.00,,2013-09-04 07:13:00,
2013-09-04 00:23:00,60.8,52.6,30.12,North,0,0.0,-999.0,74,0.00,,,0.00,,2013-09-04 07:23:00,
2013-09-04 00:33:00,60.7,52.4,30.12,North,0,0.0,-999.0,74,0.00,,,0.00,,2013-09-04 07:33:00,
2013-09-04 00:43:00,60.3,52.4,30.12,North,0,0.0,-999.0,75,0.00,,,0.00,,2013-09-04 07:43:00,
2013-09-04 00:53:00,60.1,52.6,30.12,North,0,0.0,-999.0,76,0.00,,,0.00,,2013-09-04 07:53:00,
2013-09-04 01:03:00,59.9,52.4,30.12,North,0,0.0,-999.0,76,0.00,,,0.00,,2013-09-04 08:03:00,
2013-09-04 01:13:00,59.8,52.2,30.12,North,0,0.0,-999.0,76,0.00,,,0.00,,2013-09-04 08:13:00,
2013-09-04 01:23:00,59.4,51.8,30.12,North,0,0.0,-999.0,76,0.00,,,0.00,,2013-09-04 08:23:00,
2013-09-04 01:33:00,59.2,51.7,30.12,North,0,0.0,-999.0,76,0.00,,,0.00,,2013-09-04 08:33:00,
2013-09-04 01:43:00,59.0,51.8,30.12,North,0,0.0,-999.0,77,0.00,,,0.00,,2013-09-04 08:43:00,
2013-09-04 01:53:00,58.9,51.7,30.12,North,0,0.0,-999.0,77,0.00,,,0.00,,2013-09-04 08:53:00,
2013-09-04 02:03:00,58.7,51.5,30.12,North,0,0.0,-999.0,77,0.00,,,0.00,,2013-09-04 09:03:00,
2013-09-04 02:13:00,58.5,51.7,30.12,North,0,0.0,-999.0,78,0.00,,,0.00,,2013-09-04 09:13:00,
2013-09-04 02:23:00,58.3,51.5,30.12,North,0,0.0,-999.0,78,0.00,,,0.00,,2013-09-04 09:23:00,
2013-09-04 02:33:00,58.1,51.7,30.12,North,0,0.0,-999.0,79,0.00,,,0.00,,2013-09-04 09:33:00,
2013-09-04 02:43:00,58.0,51.5,30.12,North,0,0.0,-999.0,79,0.00,,,0.00,,2013-09-04 09:43:00,
2013-09-04 02:53:00,57.8,51.3,30.12,North,0,0.0,-999.0,79,0.00,,,0.00,,2013-09-04 09:53:00,
2013-09-04 03:03:00,57.8,51.7,30.12,North,0,0.0,-999.0,80,0.00,,,0.00,,2013-09-04 10:03:00,
2013-09-04 03:13:00,57.6,51.5,30.13,North,0,0.0,-999.0,80,0.00,,,0.00,,2013-09-04 10:13:00,
2013-09-04 03:23:00,0.0,0.0,30.13,North,0,0.0,-999.0,0,0.00,,,0.00,,2013-09-04 10:23:00,
2013-09-04 03:33:00,57.2,51.5,30.13,North,0,0.0,-999.0,81,0.00,,,0.00,,2013-09-04 10:33:00,
2013-09-04 03:43:00,57.1,51.6,30.13,North,0,0.0,-999.0,82,0.00,,,0.00,,2013-09-04 10:43:00,
2013-09-04 03:53:00,56.9,51.4,30.13,North,0,0.0,-999.0,82,0.00,,,0.00,,2013-09-04 10:53:00,
2013-09-04 04:03:00,56.7,51.2,30.13,North,0,0.0,-999.0,82,0.00,,,0.00,,2013-09-04 11:03:00,
2013-09-04 04:13:00,56.5,50.8,30.12,North,0,0.0,-999.0,81,0.00,,,0.00,,2013-09-04 11:13:00,
2013-09-04 04:23:00,56.3,50.6,30.12,North,0,0.0,-999.0,81,0.00,,,0.00,,2013-09-04 11:23:00,
2013-09-04 04:33:00,56.2,50.4,30.12,North,0,0.0,-999.0,81,0.00,,,0.00,,2013-09-04 11:33:00,
2013-09-04 04:43:00,56.0,50.2,30.13,North,0,0.0,-999.0,81,0.00,,,0.00,,2013-09-04 11:43:00,
2013-09-04 04:53:00,56.0,50.2,30.12,North,0,0.0,-999.0,81,0.00,,,0.00,,2013-09-04 11:53:00,
2013-09-04 05:03:00,55.8,50.3,30.13,North,0,0.0,-999.0,82,0.00,,,0.00,,2013-09-04 12:03:00,
2013-09-04 05:13:00,55.6,50.1,30.13,North,0,0.0,-999.0,82,0.00,,,0.00,,2013-09-04 12:13:00,
2013-09-04 05:23:00,55.4,50.0,30.12,North,0,0.0,-999.0,82,0.00,,,0.00,,2013-09-04 12:23:00,
2013-09-04 05:33:00,55.3,49.8,30.12,North,0,0.0,-999.0,82,0.00,,,0.00,,2013-09-04 12:33:00,
2013-09-04 05:43:00,55.1,49.7,30.13,North,0,0.0,-999.0,82,0.00,,,0.00,,2013-09-04 12:43:00,
2013-09-04 05:53:00,55.1,49.7,30.13,North,0,0.0,-999.0,82,0.00,,,0.00,,2013-09-04 12:53:00,
2013-09-04 06:03:00,54.7,49.3,30.13,North,0,0.0,-999.0,82,0.00,,,0.00,,2013-09-04 13:03:00,
2013-09-04 06:13:00,54.7,49.6,30.14,North,0,0.0,-999.0,83,0.00,,,0.00,,2013-09-04 13:13:00,
2013-09-04 06:23:00,54.5,49.4,30.14,North,0,0.0,-999.0,83,0.00,,,0.00,,2013-09-04 13:23:00,
2013-09-04 06:33:00,54.4,49.3,30.14,North,0,0.0,-999.0,83,0.00,,,0.00,,2013-09-04 13:33:00,
2013-09-04 06:43:00,54.4,49.6,30.15,North,0,0.0,-999.0,84,0.00,,,0.00,,2013-09-04 13:43:00,
2013-09-04 06:53:00,54.4,49.6,30.15,North,0,0.0,-999.0,84,0.00,,,0.00,,2013-09-04 13:53:00,
2013-09-04 07:03:00,54.2,49.8,30.15,North,0,0.0,-999.0,85,0.00,,,0.00,,2013-09-04 14:03:00,
2013-09-04 07:13:00,54.4,50.0,30.15,North,0,0.0,-999.0,85,0.00,,,0.00,,2013-09-04 14:13:00,
2013-09-04 07:23:00,54.4,50.0,30.15,North,0,0.0,-999.0,85,0.00,,,0.00,,2013-09-04 14:23:00,
2013-09-04 07:33:00,54.4,50.2,30.16,North,0,0.0,-999.0,86,0.00,,,0.00,,2013-09-04 14:33:00,
2013-09-04 07:43:00,54.9,51.0,30.16,North,0,0.0,-999.0,87,0.00,,,0.00,,2013-09-04 14:43:00,
2013-09-04 07:53:00,55.4,51.9,30.16,North,0,0.0,-999.0,88,0.00,,,0.00,,2013-09-04 14:53:00,
2013-09-04 08:03:00,57.2,54.0,30.16,North,0,0.0,-999.0,89,0.00,,,0.00,,2013-09-04 15:03:00,
2013-09-04 08:13:00,58.7,55.4,30.16,North,0,0.0,-999.0,89,0.00,,,0.00,,2013-09-04 15:13:00,
2013-09-04 08:23:00,59.6,55.5,30.17,North,0,0.0,-999.0,86,0.00,,,0.00,,2013-09-04 15:23:00,
2013-09-04 08:33:00,60.1,55.6,30.17,North,0,0.0,-999.0,85,0.00,,,0.00,,2013-09-04 15:33:00,
2013-09-04 08:43:00,60.8,55.7,30.17,North,0,0.0,-999.0,83,0.00,,,0.00,,2013-09-04 15:43:00,
2013-09-04 08:53:00,61.4,55.9,30.17,North,0,0.0,-999.0,82,0.00,,,0.00,,2013-09-04 15:53:00,
2013-09-04 09:03:00,61.7,55.9,30.17,North,0,0.0,-999.0,81,0.00,,,0.00,,2013-09-04 16:03:00,
2013-09-04 09:13:00,62.3,56.0,30.17,North,0,0.0,-999.0,80,0.00,,,0.00,,2013-09-04 16:13:00,
2013-09-04 09:23:00,63.4,56.7,30.17,North,0,0.0,-999.0,79,0.00,,,0.00,,2013-09-04 16:23:00,
2013-09-04 09:33:00,64.3,56.9,30.17,North,0,0.0,-999.0,77,0.00,,,0.00,,2013-09-04 16:33:00,
2013-09-04 09:43:00,65.2,57.4,30.17,North,0,0.0,-999.0,76,0.00,,,0.00,,2013-09-04 16:43:00,
2013-09-04 09:53:00,65.9,57.3,30.17,North,0,0.0,-999.0,74,0.00,,,0.00,,2013-09-04 16:53:00,
2013-09-04 10:03:00,67.1,57.1,30.17,North,0,0.0,-999.0,70,0.00,,,0.00,,2013-09-04 17:03:00,
2013-09-04 10:13:00,68.8,57.3,30.17,North,0,0.0,-999.0,67,0.00,,,0.00,,2013-09-04 17:13:00,
2013-09-04 10:23:00,70.2,57.4,30.17,North,0,0.0,-999.0,64,0.00,,,0.00,,2013-09-04 17:23:00,
2013-09-04 10:33:00,71.6,58.3,30.17,North,0,0.0,-999.0,63,0.00,,,0.00,,2013-09-04 17:33:00,
2013-09-04 10:43:00,72.9,58.2,30.17,North,0,0.0,-999.0,60,0.00,,,0.00,,2013-09-04 17:43:00,
2013-09-04 10:53:00,74.0,57.3,30.17,North,0,0.0,-999.0,56,0.00,,,0.00,,2013-09-04 17:53:00,
2013-09-04 11:03:00,75.8,58.0,30.17,North,0,0.0,-999.0,54,0.00,,,0.00,,2013-09-04 18:03:00,
2013-09-04 11:13:00,77.0,58.6,30.17,North,0,0.0,-999.0,53,0.00,,,0.00,,2013-09-04 18:13:00,
2013-09-04 11:23:00,77.6,60.1,30.16,North,0,0.0,-999.0,55,0.00,,,0.00,,2013-09-04 18:23:00,
2013-09-04 11:33:00,77.9,61.5,30.16,North,0,0.0,-999.0,57,0.00,,,0.00,,2013-09-04 18:33:00,
2013-09-04 11:43:00,78.5,61.5,30.16,North,0,0.0,-999.0,56,0.00,,,0.00,,2013-09-04 18:43:00,
2013-09-04 11:53:00,78.5,61.5,30.16,North,0,0.0,-999.0,56,0.00,,,0.00,,2013-09-04 18:53:00,
2013-09-04 12:03:00,78.8,61.3,30.16,North,0,0.0,-999.0,55,0.00,,,0.00,,2013-09-04 19:03:00,
2013-09-04 12:13:00,79.0,59.4,30.16,North,0,0.0,-999.0,51,0.00,,,0.00,,2013-09-04 19:13:00,
2013-09-04 12:23:00,78.8,58.1,30.15,North,0,0.0,-999.0,49,0.00,,,0.00,,2013-09-04 19:23:00,
2013-09-04 12:33:00,79.4,59.7,30.15,North,0,0.0,-999.0,51,0.00,,,0.00,,2013-09-04 19:33:00,
2013-09-04 12:43:00,80.6,54.2,30.14,North,0,0.0,-999.0,40,0.00,,,0.00,,2013-09-04 19:43:00,
2013-09-04 12:53:00,81.4,55.4,30.14,North,0,0.0,-999.0,41,0.00,,,0.00,,2013-09-04 19:53:00,
2013-09-04 13:03:00,81.7,55.8,30.14,North,0,0.0,-999.0,41,0.00,,,0.00,,2013-09-04 20:03:00,
2013-09-04 13:13:00,81.7,55.8,30.14,North,0,0.0,-999.0,41,0.00,,,0.00,,2013-09-04 20:13:00,
2013-09-04 13:23:00,82.4,56.4,30.14,North,0,0.0,-999.0,41,0.00,,,0.00,,2013-09-04 20:23:00,
2013-09-04 13:33:00,82.1,55.4,30.13,North,0,0.0,-999.0,40,0.00,,,0.00,,2013-09-04 20:33:00,
2013-09-04 13:43:00,81.9,56.5,30.13,North,0,0.0,-999.0,42,0.00,,,0.00,,2013-09-04 20:43:00,
2013-09-04 13:53:00,82.1,56.7,30.13,North,0,0.0,-999.0,42,0.00,,,0.00,,2013-09-04 20:53:00,
2013-09-04 14:03:00,82.3,56.9,30.13,North,0,0.0,-999.0,42,0.00,,,0.00,,2013-09-04 21:03:00,
2013-09-04 14:13:00,82.4,57.1,30.12,North,0,0.0,-999.0,42,0.00,,,0.00,,2013-09-04 21:13:00,
2013-09-04 14:23:00,82.6,57.8,30.12,North,0,0.0,-999.0,43,0.00,,,0.00,,2013-09-04 21:23:00,
2013-09-04 14:33:00,83.5,58.7,30.12,North,0,0.0,-999.0,43,0.00,,,0.00,,2013-09-04 21:33:00,
2013-09-04 14:43:00,83.7,58.1,30.12,North,0,0.0,-999.0,42,0.00,,,0.00,,2013-09-04 21:43:00,
2013-09-04 14:53:00,84.2,58.7,30.12,North,0,0.0,-999.0,42,0.00,,,0.00,,2013-09-04 21:53:00,
2013-09-04 15:03:00,84.2,58.1,30.12,North,0,0.0,-999.0,41,0.00,,,0.00,,2013-09-04 22:03:00,
2013-09-04 15:13:00,83.9,58.3,30.12,North,0,0.0,-999.0,42,0.00,,,0.00,,2013-09-04 22:13:00,
2013-09-04 15:23:00,84.1,58.5,30.12,North,0,0.0,-999.0,42,0.00,,,0.00,,2013-09-04 22:23:00,
2013-09-04 15:33:00,83.7,58.1,30.11,North,0,0.0,-999.0,42,0.00,,,0.00,,2013-09-04 22:33:00,
2013-09-04 15:43:00,83.3,59.1,30.11,North,0,0.0,-999.0,44,0.00,,,0.00,,2013-09-04 22:43:00,
2013-09-04 15:53:00,83.0,58.8,30.10,North,0,0.0,-999.0,44,0.00,,,0.00,,2013-09-04 22:53:00,
2013-09-04 16:03:00,82.6,58.4,30.10,North,0,0.0,-999.0,44,0.00,,,0.00,,2013-09-04 23:03:00,
2013-09-04 16:13:00,83.0,58.2,30.10,North,0,0.0,-999.0,43,0.00,,,0.00,,2013-09-04 23:13:00,
2013-09-04 16:23:00,81.9,57.8,30.10,North,0,0.0,-999.0,44,0.00,,,0.00,,2013-09-04 23:23:00,
2013-09-04 16:33:00,81.4,57.9,30.09,North,0,0.0,-999.0,45,0.00,,,0.00,,2013-09-04 23:33:00,
2013-09-04 16:43:00,80.8,58.1,30.09,North,0,0.0,-999.0,46,0.00,,,0.00,,2013-09-04 23:43:00,
2013-09-04 16:53:00,80.5,57.1,30.09,North,0,0.0,-999.0,45,0.00,,,0.00,,2013-09-04 23:53:00,
2013-09-04 17:03:00,79.4,56.7,30.09,North,0,0.0,-999.0,46,0.00,,,0.00,,2013-09-05 00:03:00,
2013-09-04 17:13:00,78.3,57.0,30.09,North,0,0.0,-999.0,48,0.00,,,0.00,,2013-09-05 00:13:00,
2013-09-04 17:23:00,77.8,55.9,30.09,North,0,0.0,-999.0,47,0.00,,,0.00,,2013-09-05 00:23:00,
2013-09-04 17:33:00,77.2,56.6,30.09,North,0,0.0,-999.0,49,0.00,,,0.00,,2013-09-05 00:33:00,
2013-09-04 17:43:00,76.0,56.6,30.09,North,0,0.0,-999.0,51,0.00,,,0.00,,2013-09-05 00:43:00,
2013-09-04 17:53:00,75.4,57.2,30.09,North,0,0.0,-999.0,53,0.00,,,0.00,,2013-09-05 00:53:00,
2013-09-04 18:03:00,74.2,55.9,30.09,North,0,0.0,-999.0,53,0.00,,,0.00,,2013-09-05 01:03:00,
2013-09-04 18:13:00,73.6,56.3,30.09,North,0,0.0,-999.0,55,0.00,,,0.00,,2013-09-05 01:13:00,
2013-09-04 18:23:00,72.9,56.7,30.09,North,0,0.0,-999.0,57,0.00,,,0.00,,2013-09-05 01:23:00,
2013-09-04 18:33:00,72.0,56.3,30.09,North,0,0.0,-999.0,58,0.00,,,0.00,,2013-09-05 01:33:00,
2013-09-04 18:43:00,71.8,56.7,30.09,North,0,0.0,-999.0,59,0.00,,,0.00,,2013-09-05 01:43:00,
2013-09-04 18:53:00,71.3,56.7,30.09,North,0,0.0,-999.0,60,0.00,,,0.00,,2013-09-05 01:53:00,
2013-09-04 19:03:00,70.9,55.9,30.09,North,0,0.0,-999.0,59,0.00,,,0.00,,2013-09-05 02:03:00,
2013-09-04 19:13:00,70.4,55.5,30.09,North,0,0.0,-999.0,59,0.00,,,0.00,,2013-09-05 02:13:00,
2013-09-04 19:23:00,70.0,55.6,30.10,North,0,0.0,-999.0,60,0.00,,,0.00,,2013-09-05 02:23:00,
2013-09-04 19:33:00,69.5,55.5,30.10,North,0,0.0,-999.0,61,0.00,,,0.00,,2013-09-05 02:33:00,
2013-09-04 19:43:00,69.1,55.5,30.10,North,0,0.0,-999.0,62,0.00,,,0.00,,2013-09-05 02:43:00,
2013-09-04 19:53:00,68.8,55.6,30.10,North,0,0.0,-999.0,63,0.00,,,0.00,,2013-09-05 02:53:00,
2013-09-04 20:03:00,68.2,56.0,30.11,North,0,0.0,-999.0,65,0.00,,,0.00,,2013-09-05 03:03:00,
2013-09-04 20:13:00,68.0,55.8,30.11,North,0,0.0,-999.0,65,0.00,,,0.00,,2013-09-05 03:13:00,
2013-09-04 20:23:00,67.7,55.9,30.11,North,0,0.0,-999.0,66,0.00,,,0.00,,2013-09-05 03:23:00,
2013-09-04 20:33:00,67.5,56.2,30.12,North,0,0.0,-999.0,67,0.00,,,0.00,,2013-09-05 03:33:00,
2013-09-04 20:43:00,67.1,56.3,30.12,North,0,0.0,-999.0,68,0.00,,,0.00,,2013-09-05 03:43:00,
2013-09-04 20:53:00,67.0,56.1,30.12,North,0,0.0,-999.0,68,0.00,,,0.00,,2013-09-05 03:53:00,
2013-09-04 21:03:00,66.4,55.9,30.12,North,0,0.0,-999.0,69,0.00,,,0.00,,2013-09-05 04:03:00,
2013-09-04 21:13:00,66.1,56.3,30.12,North,0,0.0,-999.0,71,0.00,,,0.00,,2013-09-05 04:13:00,
2013-09-04 21:23:00,66.1,56.0,30.13,North,0,0.0,-999.0,70,0.00,,,0.00,,2013-09-05 04:23:00,
2013-09-04 21:33:00,65.9,56.6,30.13,North,0,0.0,-999.0,72,0.00,,,0.00,,2013-09-05 04:33:00,
2013-09-04 21:43:00,65.5,56.6,30.13,North,0,0.0,-999.0,73,0.00,,,0.00,,2013-09-05 04:43:00,
2013-09-04 21:53:00,65.3,56.1,30.13,North,0,0.0,-999.0,72,0.00,,,0.00,,2013-09-05 04:53:00,
2013-09-04 22:03:00,65.2,55.9,30.14,North,0,0.0,-999.0,72,0.00,,,0.00,,2013-09-05 05:03:00,
2013-09-04 22:13:00,65.2,56.7,30.14,North,0,0.0,-999.0,74,0.00,,,0.00,,2013-09-05 05:13:00,
2013-09-04 22:23:00,64.8,56.0,30.13,North,0,0.0,-999.0,73,0.00,,,0.00,,2013-09-05 05:23:00,
2013-09-04 22:33:00,64.6,56.2,30.14,North,0,0.0,-999.0,74,0.00,,,0.00,,2013-09-05 05:33:00,
2013-09-04 22:43:00,64.3,55.8,30.13,North,0,0.0,-999.0,74,0.00,,,0.00,,2013-09-05 05:43:00,
2013-09-04 22:53:00,63.9,55.4,30.13,North,0,0.0,-999.0,74,0.00,,,0.00,,2013-09-05 05:53:00,
2013-09-04 23:03:00,63.7,55.3,30.13,North,0,0.0,-999.0,74,0.00,,,0.00,,2013-09-05 06:03:00,
2013-09-04 23:13:00,63.5,55.1,30.13,North,0,0.0,-999.0,74,0.00,,,0.00,,2013-09-05 06:13:00,
2013-09-04 23:23:00,63.4,55.3,30.13,North,0,0.0,-999.0,75,0.00,,,0.00,,2013-09-05 06:23:00,
2013-09-04 23:33:00,63.0,54.5,30.13,North,0,0.0,-999.0,74,0.00,,,0.00,,2013-09-05 06:33:00,
2013-09-04 23:43:00,62.8,54.7,30.13,North,0,0.0,-999.0,75,0.00,,,0.00,,2013-09-05 06:43:00,
2013-09-04 23:53:00,62.5,54.4,30.13,North,0,0.0,-999.0,75,0.00,,,0.00,,2013-09-05 06:53:00,